Meridian, Mississippi
Current Conditions -  °F | °C
As of 3:58 AM on Sunday 25 Jan 2015 (Local Time) from KMEI Reporting Station
Clear Clear  
Wind Chill: 26°   Ceiling: Unl
Heat Index: 32°   Visibility: 10mi
Dew Point: 30°   Wind: 7mph
Humidity: 92%   Direction: 180°S
Pressure: 29.99"   Gusts: NA
Location:  32.37°N, 88.7°W
Report Text: KMEI 250958Z AUTO 18006KT 10SM CLR 00/M01 A2999 RMK AO2 SLP154 T00001011
Loading
Personal Weather Stations






























Interactive Weather Map New forecast layout! Learn more

10-Day Weather Forecast

Advertisements
Track Severe Weather on mobile